sensor_id;sensor_type;location;lat;lon;timestamp;pressure;altitude;pressure_sealevel;temperature;humidity
16100;BME280;8154;50.830;12.082;2023-12-29T00:01:31;99081.88;;;23.11;33.32
16100;BME280;8154;50.830;12.082;2023-12-29T00:03:58;99075.31;;;23.20;33.13
16100;BME280;8154;50.830;12.082;2023-12-29T00:06:25;99079.03;;;23.25;32.91
16100;BME280;8154;50.830;12.082;2023-12-29T00:08:51;99068.16;;;23.27;32.76
16100;BME280;8154;50.830;12.082;2023-12-29T00:11:22;99070.25;;;23.31;32.74
16100;BME280;8154;50.830;12.082;2023-12-29T00:13:49;99063.06;;;23.32;32.62
16100;BME280;8154;50.830;12.082;2023-12-29T00:16:15;99067.38;;;23.33;32.68
16100;BME280;8154;50.830;12.082;2023-12-29T00:18:46;99063.44;;;23.16;32.94
16100;BME280;8154;50.830;12.082;2023-12-29T00:21:13;99061.53;;;23.10;33.38
16100;BME280;8154;50.830;12.082;2023-12-29T00:23:40;99061.78;;;23.15;33.21
16100;BME280;8154;50.830;12.082;2023-12-29T00:26:06;99066.28;;;23.21;33.05
16100;BME280;8154;50.830;12.082;2023-12-29T00:28:32;99070.84;;;23.27;33.05
16100;BME280;8154;50.830;12.082;2023-12-29T00:30:58;99069.63;;;23.29;32.81
16100;BME280;8154;50.830;12.082;2023-12-29T00:33:31;99071.47;;;23.29;33.02
16100;BME280;8154;50.830;12.082;2023-12-29T00:35:57;99069.63;;;23.29;32.80
16100;BME280;8154;50.830;12.082;2023-12-29T00:38:27;99067.78;;;23.30;32.79
16100;BME280;8154;50.830;12.082;2023-12-29T00:40:57;99071.06;;;23.32;32.70
16100;BME280;8154;50.830;12.082;2023-12-29T00:43:23;99068.34;;;23.19;33.09
16100;BME280;8154;50.830;12.082;2023-12-29T00:45:50;99072.03;;;23.18;33.11
16100;BME280;8154;50.830;12.082;2023-12-29T00:48:17;99073.28;;;23.22;33.12
16100;BME280;8154;50.830;12.082;2023-12-29T00:50:43;99067.53;;;23.18;33.07
16100;BME280;8154;50.830;12.082;2023-12-29T00:53:10;99061.97;;;23.13;33.12
16100;BME280;8154;50.830;12.082;2023-12-29T00:55:36;99064.44;;;23.21;33.21
16100;BME280;8154;50.830;12.082;2023-12-29T00:58:03;99052.38;;;23.25;33.10
16100;BME280;8154;50.830;12.082;2023-12-29T01:00:29;99045.56;;;23.16;33.00
16100;BME280;8154;50.830;12.082;2023-12-29T01:02:56;99051.97;;;23.28;33.04
16100;BME280;8154;50.830;12.082;2023-12-29T01:05:22;99049.31;;;23.28;32.78
16100;BME280;8154;50.830;12.082;2023-12-29T01:07:48;99042.97;;;23.29;32.70
16100;BME280;8154;50.830;12.082;2023-12-29T01:10:14;99041.72;;;23.32;32.77
16100;BME280;8154;50.830;12.082;2023-12-29T01:12:41;99039.66;;;23.27;32.81
16100;BME280;8154;50.830;12.082;2023-12-29T01:15:11;99033.06;;;23.17;32.85
16100;BME280;8154;50.830;12.082;2023-12-29T01:17:37;99031.44;;;23.22;33.01
16100;BME280;8154;50.830;12.082;2023-12-29T01:20:05;99027.13;;;23.21;33.21
16100;BME280;8154;50.830;12.082;2023-12-29T01:22:31;99034.69;;;23.18;33.14
16100;BME280;8154;50.830;12.082;2023-12-29T01:24:59;99035.53;;;23.18;32.96
16100;BME280;8154;50.830;12.082;2023-12-29T01:31:06;99036.56;;;23.24;32.83
16100;BME280;8154;50.830;12.082;2023-12-29T01:33:34;99040.47;;;23.21;33.13
16100;BME280;8154;50.830;12.082;2023-12-29T01:36:01;99045.38;;;23.18;33.17
16100;BME280;8154;50.830;12.082;2023-12-29T01:38:27;99036.97;;;23.21;33.15
16100;BME280;8154;50.830;12.082;2023-12-29T01:40:54;99031.63;;;23.21;33.21
16100;BME280;8154;50.830;12.082;2023-12-29T01:43:21;99011.53;;;23.18;32.88
16100;BME280;8154;50.830;12.082;2023-12-29T01:45:48;99015.44;;;23.22;32.82
16100;BME280;8154;50.830;12.082;2023-12-29T01:48:17;99008.91;;;23.25;32.82
16100;BME280;8154;50.830;12.082;2023-12-29T01:50:45;99009.13;;;23.30;32.83
16100;BME280;8154;50.830;12.082;2023-12-29T01:53:11;98998.00;;;23.20;33.06
16100;BME280;8154;50.830;12.082;2023-12-29T01:55:38;98995.75;;;23.10;33.11
16100;BME280;8154;50.830;12.082;2023-12-29T01:58:04;98990.84;;;23.14;33.32
16100;BME280;8154;50.830;12.082;2023-12-29T02:00:30;98992.06;;;23.18;33.19
16100;BME280;8154;50.830;12.082;2023-12-29T02:02:57;98986.94;;;23.23;32.96
16100;BME280;8154;50.830;12.082;2023-12-29T02:05:26;98976.06;;;23.24;32.85
16100;BME280;8154;50.830;12.082;2023-12-29T02:08:00;98977.50;;;23.27;32.93
16100;BME280;8154;50.830;12.082;2023-12-29T02:10:26;98984.31;;;23.29;32.89
16100;BME280;8154;50.830;12.082;2023-12-29T02:12:53;98972.41;;;23.32;32.77
16100;BME280;8154;50.830;12.082;2023-12-29T02:15:23;98976.09;;;23.31;32.78
16100;BME280;8154;50.830;12.082;2023-12-29T02:17:55;98971.13;;;23.21;33.01
16100;BME280;8154;50.830;12.082;2023-12-29T02:20:25;98973.00;;;23.14;33.09
16100;BME280;8154;50.830;12.082;2023-12-29T02:22:52;98973.59;;;23.16;33.20
16100;BME280;8154;50.830;12.082;2023-12-29T02:25:36;98960.69;;;23.20;32.91
16100;BME280;8154;50.830;12.082;2023-12-29T02:28:15;98979.34;;;23.20;33.15
16100;BME280;8154;50.830;12.082;2023-12-29T02:30:51;98972.59;;;23.17;33.00
16100;BME280;8154;50.830;12.082;2023-12-29T02:33:23;98954.34;;;23.14;33.19
16100;BME280;8154;50.830;12.082;2023-12-29T02:35:52;98966.63;;;23.22;33.08
16100;BME280;8154;50.830;12.082;2023-12-29T02:38:21;98966.25;;;23.25;32.90
16100;BME280;8154;50.830;12.082;2023-12-29T02:40:48;98976.50;;;23.28;32.99
16100;BME280;8154;50.830;12.082;2023-12-29T02:43:14;98979.97;;;23.22;32.87
16100;BME280;8154;50.830;12.082;2023-12-29T02:45:40;98972.38;;;23.12;33.37
16100;BME280;8154;50.830;12.082;2023-12-29T02:48:07;98975.47;;;23.16;33.03
16100;BME280;8154;50.830;12.082;2023-12-29T02:50:32;98963.16;;;23.21;32.99
16100;BME280;8154;50.830;12.082;2023-12-29T02:53:02;98963.78;;;23.23;33.18
16100;BME280;8154;50.830;12.082;2023-12-29T02:55:29;98948.38;;;23.19;33.00
16100;BME280;8154;50.830;12.082;2023-12-29T02:57:58;98956.19;;;23.27;33.03
16100;BME280;8154;50.830;12.082;2023-12-29T03:00:24;98946.09;;;23.22;32.89
16100;BME280;8154;50.830;12.082;2023-12-29T03:03:10;98944.69;;;23.20;33.08
16100;BME280;8154;50.830;12.082;2023-12-29T03:05:55;98934.66;;;23.22;33.05
16100;BME280;8154;50.830;12.082;2023-12-29T03:08:23;98926.66;;;23.15;33.24
16100;BME280;8154;50.830;12.082;2023-12-29T03:10:49;98924.41;;;23.12;33.08
16100;BME280;8154;50.830;12.082;2023-12-29T03:13:17;98923.34;;;23.13;33.13
16100;BME280;8154;50.830;12.082;2023-12-29T03:15:43;98923.34;;;23.20;33.10
16100;BME280;8154;50.830;12.082;2023-12-29T03:18:09;98917.63;;;23.23;33.07
16100;BME280;8154;50.830;12.082;2023-12-29T03:20:35;98907.19;;;23.28;32.98
16100;BME280;8154;50.830;12.082;2023-12-29T03:23:02;98908.81;;;23.29;32.70
16100;BME280;8154;50.830;12.082;2023-12-29T03:25:48;98909.22;;;23.26;32.93
16100;BME280;8154;50.830;12.082;2023-12-29T03:28:14;98904.94;;;23.25;32.97
16100;BME280;8154;50.830;12.082;2023-12-29T03:30:40;98913.53;;;23.27;32.73
16100;BME280;8154;50.830;12.082;2023-12-29T03:33:06;98913.13;;;23.23;32.80
16100;BME280;8154;50.830;12.082;2023-12-29T03:35:33;98912.28;;;23.23;32.91
16100;BME280;8154;50.830;12.082;2023-12-29T03:37:59;98905.13;;;23.17;33.03
16100;BME280;8154;50.830;12.082;2023-12-29T03:40:25;98901.03;;;23.08;33.08
16100;BME280;8154;50.830;12.082;2023-12-29T03:42:52;98902.44;;;23.10;33.17
16100;BME280;8154;50.830;12.082;2023-12-29T03:45:18;98898.94;;;23.16;32.95
16100;BME280;8154;50.830;12.082;2023-12-29T03:47:45;98902.66;;;23.22;32.90
16100;BME280;8154;50.830;12.082;2023-12-29T03:50:12;98897.75;;;23.25;32.72
16100;BME280;8154;50.830;12.082;2023-12-29T03:52:39;98899.81;;;23.30;32.86
16100;BME280;8154;50.830;12.082;2023-12-29T03:55:05;98910.47;;;23.30;32.88
16100;BME280;8154;50.830;12.082;2023-12-29T03:57:32;98896.31;;;23.29;32.93
16100;BME280;8154;50.830;12.082;2023-12-29T03:59:58;98907.19;;;23.28;32.82
16100;BME280;8154;50.830;12.082;2023-12-29T04:02:24;98910.06;;;23.26;32.93
16100;BME280;8154;50.830;12.082;2023-12-29T04:04:51;98905.53;;;23.20;32.68
16100;BME280;8154;50.830;12.082;2023-12-29T04:07:18;98900.19;;;23.20;33.00
16100;BME280;8154;50.830;12.082;2023-12-29T04:09:57;98906.78;;;23.05;33.08
16100;BME280;8154;50.830;12.082;2023-12-29T04:12:23;98907.56;;;23.05;33.05
16100;BME280;8154;50.830;12.082;2023-12-29T04:14:51;98904.91;;;23.12;32.92
16100;BME280;8154;50.830;12.082;2023-12-29T04:17:17;98899.56;;;23.18;32.92
16100;BME280;8154;50.830;12.082;2023-12-29T04:19:45;98909.81;;;23.21;33.05
16100;BME280;8154;50.830;12.082;2023-12-29T04:22:11;98901.63;;;23.23;32.98
16100;BME280;8154;50.830;12.082;2023-12-29T04:24:37;98900.59;;;23.24;32.70
16100;BME280;8154;50.830;12.082;2023-12-29T04:27:03;98912.53;;;23.28;32.76
16100;BME280;8154;50.830;12.082;2023-12-29T04:29:30;98909.03;;;23.27;32.60
16100;BME280;8154;50.830;12.082;2023-12-29T04:31:56;98893.03;;;23.27;32.56
16100;BME280;8154;50.830;12.082;2023-12-29T04:34:22;98887.91;;;23.26;32.86
16100;BME280;8154;50.830;12.082;2023-12-29T04:36:49;98858.59;;;23.13;32.99
16100;BME280;8154;50.830;12.082;2023-12-29T04:39:15;98865.34;;;23.09;33.07
16100;BME280;8154;50.830;12.082;2023-12-29T04:41:46;98886.28;;;22.99;33.34
16100;BME280;8154;50.830;12.082;2023-12-29T04:44:28;98871.91;;;23.13;32.99
16100;BME280;8154;50.830;12.082;2023-12-29T04:46:54;98871.91;;;23.13;33.11
16100;BME280;8154;50.830;12.082;2023-12-29T04:49:20;98875.59;;;23.18;32.75
16100;BME280;8154;50.830;12.082;2023-12-29T04:55:28;98888.91;;;23.12;33.08
16100;BME280;8154;50.830;12.082;2023-12-29T04:57:55;98886.44;;;23.17;33.01
16100;BME280;8154;50.830;12.082;2023-12-29T05:00:41;98880.09;;;23.18;32.72
16100;BME280;8154;50.830;12.082;2023-12-29T05:03:26;98871.25;;;23.24;32.69
16100;BME280;8154;50.830;12.082;2023-12-29T05:05:52;98867.16;;;23.21;32.67
16100;BME280;8154;50.830;12.082;2023-12-29T05:08:18;98866.75;;;23.18;32.93
16100;BME280;8154;50.830;12.082;2023-12-29T05:10:45;98858.16;;;23.16;32.77
16100;BME280;8154;50.830;12.082;2023-12-29T05:13:11;98850.34;;;23.21;32.76
16100;BME280;8154;50.830;12.082;2023-12-29T05:15:37;98857.97;;;23.17;32.88
16100;BME280;8154;50.830;12.082;2023-12-29T05:18:06;98872.72;;;23.13;33.02
16100;BME280;8154;50.830;12.082;2023-12-29T05:20:32;98875.00;;;23.03;33.08
16100;BME280;8154;50.830;12.082;2023-12-29T05:22:59;98878.03;;;23.07;33.13
16100;BME280;8154;50.830;12.082;2023-12-29T05:25:25;98874.16;;;23.16;33.01
16100;BME280;8154;50.830;12.082;2023-12-29T05:27:52;98865.34;;;23.22;32.67
16100;BME280;8154;50.830;12.082;2023-12-29T05:30:18;98850.97;;;23.23;32.66
16100;BME280;8154;50.830;12.082;2023-12-29T05:32:44;98855.09;;;23.25;32.88
16100;BME280;8154;50.830;12.082;2023-12-29T05:35:20;98851.63;;;23.25;32.75
16100;BME280;8154;50.830;12.082;2023-12-29T05:37:46;98848.94;;;23.25;32.53
16100;BME280;8154;50.830;12.082;2023-12-29T05:40:13;98849.13;;;23.17;32.93
16100;BME280;8154;50.830;12.082;2023-12-29T05:42:39;98855.28;;;23.17;32.88
16100;BME280;8154;50.830;12.082;2023-12-29T05:45:07;98865.97;;;23.04;33.10
16100;BME280;8154;50.830;12.082;2023-12-29T05:47:33;98862.69;;;23.09;33.09
16100;BME280;8154;50.830;12.082;2023-12-29T05:49:59;98877.03;;;23.14;32.92
16100;BME280;8154;50.830;12.082;2023-12-29T05:52:26;98864.09;;;23.18;32.87
16100;BME280;8154;50.830;12.082;2023-12-29T05:54:52;98855.69;;;23.21;32.95
16100;BME280;8154;50.830;12.082;2023-12-29T05:57:21;98861.41;;;23.24;32.88
16100;BME280;8154;50.830;12.082;2023-12-29T06:00:04;98850.38;;;23.27;32.54
16100;BME280;8154;50.830;12.082;2023-12-29T06:02:43;98841.94;;;23.24;32.72
16100;BME280;8154;50.830;12.082;2023-12-29T06:05:17;98834.16;;;23.29;32.62
16100;BME280;8154;50.830;12.082;2023-12-29T06:07:43;98820.22;;;23.27;32.70
16100;BME280;8154;50.830;12.082;2023-12-29T06:10:29;98834.75;;;23.24;32.74
16100;BME280;8154;50.830;12.082;2023-12-29T06:13:03;98833.34;;;23.22;32.60
16100;BME280;8154;50.830;12.082;2023-12-29T06:15:43;98835.38;;;23.20;32.71
16100;BME280;8154;50.830;12.082;2023-12-29T06:18:19;98825.78;;;23.12;32.97
16100;BME280;8154;50.830;12.082;2023-12-29T06:21:05;98808.94;;;23.18;32.77
16100;BME280;8154;50.830;12.082;2023-12-29T06:23:31;98821.84;;;23.21;32.61
16100;BME280;8154;50.830;12.082;2023-12-29T06:25:57;98809.16;;;23.17;32.83
16100;BME280;8154;50.830;12.082;2023-12-29T06:28:23;98817.56;;;23.14;32.94
16100;BME280;8154;50.830;12.082;2023-12-29T06:30:49;98813.28;;;23.06;32.94
16100;BME280;8154;50.830;12.082;2023-12-29T06:33:24;98821.06;;;23.14;32.68
16100;BME280;8154;50.830;12.082;2023-12-29T06:35:51;98824.50;;;23.21;32.52
16100;BME280;8154;50.830;12.082;2023-12-29T06:38:17;98833.13;;;23.23;32.59
16100;BME280;8154;50.830;12.082;2023-12-29T06:40:46;98816.09;;;23.18;32.58
16100;BME280;8154;50.830;12.082;2023-12-29T06:43:13;98815.31;;;23.17;32.81
16100;BME280;8154;50.830;12.082;2023-12-29T06:45:40;98800.13;;;23.18;32.50
16100;BME280;8154;50.830;12.082;2023-12-29T06:48:06;98807.91;;;23.19;32.85
16100;BME280;8154;50.830;12.082;2023-12-29T06:50:33;98799.91;;;23.19;32.57
16100;BME280;8154;50.830;12.082;2023-12-29T06:53:02;98804.84;;;23.16;32.79
16100;BME280;8154;50.830;12.082;2023-12-29T06:55:29;98814.28;;;23.05;32.94
16100;BME280;8154;50.830;12.082;2023-12-29T06:57:56;98824.75;;;23.07;32.86
16100;BME280;8154;50.830;12.082;2023-12-29T07:00:22;98816.31;;;23.16;32.79
16100;BME280;8154;50.830;12.082;2023-12-29T07:02:49;98822.69;;;23.22;32.77
16100;BME280;8154;50.830;12.082;2023-12-29T07:05:15;98816.97;;;23.25;32.72
16100;BME280;8154;50.830;12.082;2023-12-29T07:07:41;98837.88;;;23.28;32.46
16100;BME280;8154;50.830;12.082;2023-12-29T07:10:08;98848.31;;;23.29;32.48
16100;BME280;8154;50.830;12.082;2023-12-29T07:12:34;98856.13;;;23.31;32.57
16100;BME280;8154;50.830;12.082;2023-12-29T07:15:00;98860.00;;;23.22;32.53
16100;BME280;8154;50.830;12.082;2023-12-29T07:17:45;98859.38;;;23.20;32.54
16100;BME280;8154;50.830;12.082;2023-12-29T07:20:12;98869.84;;;23.15;32.95
16100;BME280;8154;50.830;12.082;2023-12-29T07:22:39;98874.97;;;23.10;32.71
16100;BME280;8154;50.830;12.082;2023-12-29T07:25:05;98881.13;;;23.17;32.72
16100;BME280;8154;50.830;12.082;2023-12-29T07:27:32;98870.25;;;23.18;32.75
16100;BME280;8154;50.830;12.082;2023-12-29T07:29:58;98886.03;;;23.20;32.88
16100;BME280;8154;50.830;12.082;2023-12-29T07:32:24;98881.91;;;23.24;32.76
16100;BME280;8154;50.830;12.082;2023-12-29T07:34:52;98887.06;;;23.25;32.54
16100;BME280;8154;50.830;12.082;2023-12-29T07:37:18;98890.38;;;23.27;32.60
16100;BME280;8154;50.830;12.082;2023-12-29T07:39:44;98885.44;;;23.31;32.43
16100;BME280;8154;50.830;12.082;2023-12-29T07:42:14;98895.06;;;23.32;32.28
16100;BME280;8154;50.830;12.082;2023-12-29T07:44:53;98885.66;;;23.29;32.32
16100;BME280;8154;50.830;12.082;2023-12-29T07:47:21;98895.06;;;23.25;32.73
16100;BME280;8154;50.830;12.082;2023-12-29T07:49:47;98889.31;;;23.15;32.91
16100;BME280;8154;50.830;12.082;2023-12-29T07:52:14;98892.81;;;23.09;32.91
16100;BME280;8154;50.830;12.082;2023-12-29T07:54:43;98886.44;;;23.17;32.88
16100;BME280;8154;50.830;12.082;2023-12-29T07:57:23;98885.84;;;23.21;32.58
16100;BME280;8154;50.830;12.082;2023-12-29T07:59:51;98885.41;;;23.24;32.72
16100;BME280;8154;50.830;12.082;2023-12-29T08:02:17;98886.88;;;23.27;32.50
16100;BME280;8154;50.830;12.082;2023-12-29T08:04:56;98889.53;;;23.27;32.45
16100;BME280;8154;50.830;12.082;2023-12-29T08:07:42;98898.16;;;23.29;32.55
16100;BME280;8154;50.830;12.082;2023-12-29T08:10:17;98883.19;;;23.28;32.46
16100;BME280;8154;50.830;12.082;2023-12-29T08:12:47;98890.16;;;23.29;32.47
16100;BME280;8154;50.830;12.082;2023-12-29T08:15:13;98890.97;;;23.23;32.82
16100;BME280;8154;50.830;12.082;2023-12-29T08:17:58;98885.84;;;23.21;32.63
16100;BME280;8154;50.830;12.082;2023-12-29T08:20:27;98886.88;;;23.20;32.56
16100;BME280;8154;50.830;12.082;2023-12-29T08:22:55;98888.50;;;23.21;32.63
16100;BME280;8154;50.830;12.082;2023-12-29T08:25:34;98893.63;;;23.23;32.65
16100;BME280;8154;50.830;12.082;2023-12-29T08:28:02;98886.28;;;23.25;32.65
16100;BME280;8154;50.830;12.082;2023-12-29T08:30:34;98883.59;;;23.25;32.62
16100;BME280;8154;50.830;12.082;2023-12-29T08:33:17;98873.91;;;23.24;32.67
16100;BME280;8154;50.830;12.082;2023-12-29T08:35:43;98865.53;;;23.14;32.95
16100;BME280;8154;50.830;12.082;2023-12-29T08:38:30;98874.75;;;23.18;32.85
16100;BME280;8154;50.830;12.082;2023-12-29T08:40:58;98863.69;;;23.21;32.68
16100;BME280;8154;50.830;12.082;2023-12-29T08:43:24;98859.63;;;23.25;32.94
16100;BME280;8154;50.830;12.082;2023-12-29T08:45:53;98869.88;;;23.28;32.50
16100;BME280;8154;50.830;12.082;2023-12-29T08:48:20;98839.94;;;23.13;32.49
16100;BME280;8154;50.830;12.082;2023-12-29T08:51:06;98874.56;;;23.32;32.41
16100;BME280;8154;50.830;12.082;2023-12-29T08:53:33;98877.25;;;23.32;32.53
16100;BME280;8154;50.830;12.082;2023-12-29T08:56:11;98879.50;;;23.29;32.47
16100;BME280;8154;50.830;12.082;2023-12-29T08:58:37;98880.94;;;23.25;32.64
16100;BME280;8154;50.830;12.082;2023-12-29T09:01:04;98888.72;;;23.26;32.63
16100;BME280;8154;50.830;12.082;2023-12-29T09:03:50;98879.28;;;23.17;32.84
16100;BME280;8154;50.830;12.082;2023-12-29T09:06:24;98890.38;;;23.14;32.97
16100;BME280;8154;50.830;12.082;2023-12-29T09:08:50;98892.41;;;23.19;32.71
16100;BME280;8154;50.830;12.082;2023-12-29T09:11:31;98886.66;;;23.22;32.60
16100;BME280;8154;50.830;12.082;2023-12-29T09:13:57;98899.19;;;23.28;32.47
16100;BME280;8154;50.830;12.082;2023-12-29T09:16:25;98900.41;;;23.32;32.70
16100;BME280;8154;50.830;12.082;2023-12-29T09:18:54;98901.22;;;23.32;32.60
16100;BME280;8154;50.830;12.082;2023-12-29T09:21:20;98902.47;;;23.30;32.57
16100;BME280;8154;50.830;12.082;2023-12-29T09:23:46;98901.63;;;23.23;32.58
16100;BME280;8154;50.830;12.082;2023-12-29T09:26:24;98911.66;;;23.21;32.76
16100;BME280;8154;50.830;12.082;2023-12-29T09:28:50;98913.31;;;23.22;32.77
16100;BME280;8154;50.830;12.082;2023-12-29T09:31:34;98923.16;;;23.21;32.92
16100;BME280;8154;50.830;12.082;2023-12-29T09:34:01;98926.44;;;23.23;32.68
16100;BME280;8154;50.830;12.082;2023-12-29T09:36:38;98919.91;;;23.26;32.63
16100;BME280;8154;50.830;12.082;2023-12-29T09:39:20;98914.34;;;23.27;32.53
16100;BME280;8154;50.830;12.082;2023-12-29T09:41:58;98909.22;;;23.26;32.57
16100;BME280;8154;50.830;12.082;2023-12-29T09:44:41;98916.41;;;23.32;32.58
16100;BME280;8154;50.830;12.082;2023-12-29T09:47:11;98920.94;;;23.31;32.74
16100;BME280;8154;50.830;12.082;2023-12-29T09:49:39;98914.16;;;23.29;32.76
16100;BME280;8154;50.830;12.082;2023-12-29T09:52:11;98903.06;;;23.32;32.71
16100;BME280;8154;50.830;12.082;2023-12-29T09:54:51;98909.41;;;23.18;32.94
16100;BME280;8154;50.830;12.082;2023-12-29T09:57:19;98905.94;;;23.17;32.91
16100;BME280;8154;50.830;12.082;2023-12-29T09:59:49;98910.88;;;23.27;32.54
16100;BME280;8154;50.830;12.082;2023-12-29T10:02:37;98905.91;;;23.24;32.50
16100;BME280;8154;50.830;12.082;2023-12-29T10:05:23;98904.53;;;23.28;32.50
16100;BME280;8154;50.830;12.082;2023-12-29T10:07:50;98913.75;;;23.25;32.72
16100;BME280;8154;50.830;12.082;2023-12-29T10:10:19;98915.41;;;23.26;32.91
16100;BME280;8154;50.830;12.082;2023-12-29T10:12:47;98904.31;;;23.29;32.78
16100;BME280;8154;50.830;12.082;2023-12-29T10:15:37;98902.25;;;23.12;32.94
16100;BME280;8154;50.830;12.082;2023-12-29T10:18:34;98898.94;;;23.16;32.95
16100;BME280;8154;50.830;12.082;2023-12-29T10:24:19;98908.81;;;23.29;32.75
16100;BME280;8154;50.830;12.082;2023-12-29T10:27:05;98887.91;;;23.26;32.66
16100;BME280;8154;50.830;12.082;2023-12-29T10:29:41;98895.91;;;23.32;32.57
16100;BME280;8154;50.830;12.082;2023-12-29T10:32:27;98901.84;;;23.34;32.48
16100;BME280;8154;50.830;12.082;2023-12-29T10:35:10;98913.94;;;23.37;32.33
16100;BME280;8154;50.830;12.082;2023-12-29T10:37:37;98895.69;;;23.27;32.59
16100;BME280;8154;50.830;12.082;2023-12-29T10:40:05;98908.19;;;23.27;32.78
16100;BME280;8154;50.830;12.082;2023-12-29T10:42:54;98899.56;;;23.18;32.75
16100;BME280;8154;50.830;12.082;2023-12-29T10:45:23;98904.06;;;23.24;32.85
16100;BME280;8154;50.830;12.082;2023-12-29T10:48:10;98916.19;;;23.27;32.54
16100;BME280;8154;50.830;12.082;2023-12-29T10:50:44;98905.53;;;23.27;32.76
16100;BME280;8154;50.830;12.082;2023-12-29T10:53:15;98898.97;;;23.29;32.46
16100;BME280;8154;50.830;12.082;2023-12-29T10:55:59;98905.53;;;23.20;32.69
16100;BME280;8154;50.830;12.082;2023-12-29T10:58:29;98903.25;;;23.24;33.02
16100;BME280;8154;50.830;12.082;2023-12-29T11:00:58;98897.75;;;23.25;32.60
16100;BME280;8154;50.830;12.082;2023-12-29T11:03:26;98898.97;;;23.29;32.79
16100;BME280;8154;50.830;12.082;2023-12-29T11:05:59;98877.84;;;23.34;32.59
16100;BME280;8154;50.830;12.082;2023-12-29T11:08:29;98882.16;;;23.35;32.42
16100;BME280;8154;50.830;12.082;2023-12-29T11:11:10;98883.41;;;23.33;32.53
16100;BME280;8154;50.830;12.082;2023-12-29T11:13:55;98876.00;;;23.35;32.33
16100;BME280;8154;50.830;12.082;2023-12-29T11:16:39;98856.31;;;23.29;32.63
16100;BME280;8154;50.830;12.082;2023-12-29T11:19:07;98864.53;;;23.28;32.65
16100;BME280;8154;50.830;12.082;2023-12-29T11:21:46;98856.50;;;23.21;32.85
16100;BME280;8154;50.830;12.082;2023-12-29T11:24:26;98860.81;;;23.22;32.92
16100;BME280;8154;50.830;12.082;2023-12-29T11:26:53;98861.03;;;23.27;32.74
16100;BME280;8154;50.830;12.082;2023-12-29T11:29:40;98860.41;;;23.32;32.76
16100;BME280;8154;50.830;12.082;2023-12-29T11:36:31;98854.06;;;23.33;32.73
16100;BME280;8154;50.830;12.082;2023-12-29T11:38:58;98835.41;;;23.33;32.46
16100;BME280;8154;50.830;12.082;2023-12-29T11:41:42;98838.66;;;23.28;32.56
16100;BME280;8154;50.830;12.082;2023-12-29T11:44:29;98823.69;;;23.34;32.49
16100;BME280;8154;50.830;12.082;2023-12-29T11:47:34;98832.91;;;23.38;32.62
16100;BME280;8154;50.830;12.082;2023-12-29T11:50:37;98831.50;;;23.35;32.39
16100;BME280;8154;50.830;12.082;2023-12-29T11:53:04;98825.16;;;23.30;32.67
16100;BME280;8154;50.830;12.082;2023-12-29T11:55:50;98827.41;;;23.33;32.55
16100;BME280;8154;50.830;12.082;2023-12-29T11:58:26;98830.88;;;23.27;32.79
16100;BME280;8154;50.830;12.082;2023-12-29T12:01:14;98825.94;;;23.24;32.75
16100;BME280;8154;50.830;12.082;2023-12-29T12:03:53;98828.41;;;23.32;32.76
16100;BME280;8154;50.830;12.082;2023-12-29T12:06:39;98814.06;;;23.33;32.47
16100;BME280;8154;50.830;12.082;2023-12-29T12:09:24;98808.53;;;23.34;32.71
16100;BME280;8154;50.830;12.082;2023-12-29T12:11:53;98817.31;;;23.35;32.62
16100;BME280;8154;50.830;12.082;2023-12-29T12:14:51;98816.09;;;23.37;32.44
16100;BME280;8154;50.830;12.082;2023-12-29T12:17:34;98820.59;;;23.37;32.45
16100;BME280;8154;50.830;12.082;2023-12-29T12:20:09;98824.09;;;23.24;32.58
16100;BME280;8154;50.830;12.082;2023-12-29T12:23:01;98815.47;;;23.22;32.79
16100;BME280;8154;50.830;12.082;2023-12-29T12:25:36;98813.88;;;23.28;32.55
16100;BME280;8154;50.830;12.082;2023-12-29T12:28:06;98816.72;;;23.33;32.87
16100;BME280;8154;50.830;12.082;2023-12-29T12:30:33;98823.50;;;23.29;32.63
16100;BME280;8154;50.830;12.082;2023-12-29T12:33:18;98803.81;;;23.30;32.70
16100;BME280;8154;50.830;12.082;2023-12-29T12:36:01;98795.81;;;23.30;32.53
16100;BME280;8154;50.830;12.082;2023-12-29T12:38:54;98798.88;;;23.33;32.46
16100;BME280;8154;50.830;12.082;2023-12-29T12:41:26;98788.00;;;23.35;32.63
16100;BME280;8154;50.830;12.082;2023-12-29T12:49:20;98792.53;;;23.28;32.82
16100;BME280;8154;50.830;12.082;2023-12-29T12:51:55;98787.78;;;23.36;32.60
16100;BME280;8154;50.830;12.082;2023-12-29T12:54:26;98781.22;;;23.39;32.67
16100;BME280;8154;50.830;12.082;2023-12-29T12:57:01;98795.75;;;23.43;32.33
16100;BME280;8154;50.830;12.082;2023-12-29T12:59:42;98796.38;;;23.45;32.52
16100;BME280;8154;50.830;12.082;2023-12-29T13:02:09;98801.09;;;23.49;32.35
16100;BME280;8154;50.830;12.082;2023-12-29T13:04:50;98802.72;;;23.44;32.61
16100;BME280;8154;50.830;12.082;2023-12-29T13:07:20;98791.91;;;23.39;32.38
16100;BME280;8154;50.830;12.082;2023-12-29T13:09:50;98791.91;;;23.32;32.48
16100;BME280;8154;50.830;12.082;2023-12-29T13:12:33;98793.53;;;23.33;32.45
16100;BME280;8154;50.830;12.082;2023-12-29T13:15:08;98785.94;;;23.37;32.64
16100;BME280;8154;50.830;12.082;2023-12-29T13:17:50;98775.47;;;23.42;32.69
16100;BME280;8154;50.830;12.082;2023-12-29T13:20:19;98782.03;;;23.39;32.56
16100;BME280;8154;50.830;12.082;2023-12-29T13:23:05;98779.75;;;23.43;32.22
16100;BME280;8154;50.830;12.082;2023-12-29T13:25:55;98772.38;;;23.45;32.58
16100;BME280;8154;50.830;12.082;2023-12-29T13:28:25;98764.38;;;23.45;32.34
16100;BME280;8154;50.830;12.082;2023-12-29T13:30:58;98761.16;;;23.30;32.54
16100;BME280;8154;50.830;12.082;2023-12-29T13:33:59;98767.91;;;23.32;32.65
16100;BME280;8154;50.830;12.082;2023-12-29T13:36:49;98762.56;;;23.39;32.35
16100;BME280;8154;50.830;12.082;2023-12-29T13:39:43;98767.25;;;23.43;32.59
16100;BME280;8154;50.830;12.082;2023-12-29T13:42:24;98766.63;;;23.48;32.37
16100;BME280;8154;50.830;12.082;2023-12-29T13:44:59;98770.72;;;23.44;32.36